sensor_id;sensor_type;location;lat;lon;timestamp;pressure;altitude;pressure_sealevel;temperature;humidity
38780;BME280;29273;49.962;9.768;2022-12-05T00:00:14;99544.31;;;7.74;59.05
38780;BME280;29273;49.962;9.768;2022-12-05T00:02:40;99543.31;;;7.75;59.19
38780;BME280;29273;49.962;9.768;2022-12-05T00:05:06;99544.09;;;7.75;59.07
38780;BME280;29273;49.962;9.768;2022-12-05T00:07:31;99548.56;;;7.75;58.95
38780;BME280;29273;49.962;9.768;2022-12-05T00:09:57;99546.13;;;7.73;59.13
38780;BME280;29273;49.962;9.768;2022-12-05T00:12:23;99553.84;;;7.75;59.07
38780;BME280;29273;49.962;9.768;2022-12-05T00:14:48;99560.13;;;7.74;59.11
38780;BME280;29273;49.962;9.768;2022-12-05T00:17:14;99561.13;;;7.73;59.04
38780;BME280;29273;49.962;9.768;2022-12-05T00:19:39;99556.66;;;7.73;59.16
38780;BME280;29273;49.962;9.768;2022-12-05T00:22:05;99559.50;;;7.72;59.19
38780;BME280;29273;49.962;9.768;2022-12-05T00:24:30;99554.22;;;7.72;59.31
38780;BME280;29273;49.962;9.768;2022-12-05T00:26:55;99558.50;;;7.73;59.34
38780;BME280;29273;49.962;9.768;2022-12-05T00:29:21;99568.22;;;7.72;59.38
38780;BME280;29273;49.962;9.768;2022-12-05T00:31:46;99562.94;;;7.72;59.33
38780;BME280;29273;49.962;9.768;2022-12-05T00:34:12;99566.41;;;7.73;59.29
38780;BME280;29273;49.962;9.768;2022-12-05T00:36:38;99569.22;;;7.71;59.35
38780;BME280;29273;49.962;9.768;2022-12-05T00:39:06;99574.13;;;7.74;59.31
38780;BME280;29273;49.962;9.768;2022-12-05T00:41:32;99577.31;;;7.70;59.65
38780;BME280;29273;49.962;9.768;2022-12-05T00:43:59;99583.22;;;7.72;59.58
38780;BME280;29273;49.962;9.768;2022-12-05T00:46:27;99584.22;;;7.71;59.70
38780;BME280;29273;49.962;9.768;2022-12-05T00:48:55;99580.78;;;7.70;59.75
38780;BME280;29273;49.962;9.768;2022-12-05T00:51:26;99590.94;;;7.73;59.17
38780;BME280;29273;49.962;9.768;2022-12-05T00:53:53;99586.41;;;7.67;59.92
38780;BME280;29273;49.962;9.768;2022-12-05T00:56:21;99590.31;;;7.71;59.43
38780;BME280;29273;49.962;9.768;2022-12-05T00:58:48;99596.59;;;7.70;59.72
38780;BME280;29273;49.962;9.768;2022-12-05T01:01:18;99599.66;;;7.74;59.59
38780;BME280;29273;49.962;9.768;2022-12-05T01:03:45;99604.50;;;7.70;60.03
38780;BME280;29273;49.962;9.768;2022-12-05T01:06:12;99599.22;;;7.70;60.01
38780;BME280;29273;49.962;9.768;2022-12-05T01:08:37;99601.03;;;7.70;60.22
38780;BME280;29273;49.962;9.768;2022-12-05T01:11:04;99611.22;;;7.73;60.01
38780;BME280;29273;49.962;9.768;2022-12-05T01:13:32;99612.22;;;7.72;60.13
38780;BME280;29273;49.962;9.768;2022-12-05T01:15:57;99615.66;;;7.72;60.16
38780;BME280;29273;49.962;9.768;2022-12-05T01:18:24;99614.66;;;7.73;60.11
38780;BME280;29273;49.962;9.768;2022-12-05T01:20:50;99624.00;;;7.76;59.95
38780;BME280;29273;49.962;9.768;2022-12-05T01:23:16;99617.13;;;7.75;60.13
38780;BME280;29273;49.962;9.768;2022-12-05T01:25:44;99624.84;;;7.76;60.02
38780;BME280;29273;49.962;9.768;2022-12-05T01:28:11;99620.38;;;7.77;60.24
38780;BME280;29273;49.962;9.768;2022-12-05T01:30:42;99639.06;;;7.82;59.74
38780;BME280;29273;49.962;9.768;2022-12-05T01:33:09;99631.72;;;7.77;60.33
38780;BME280;29273;49.962;9.768;2022-12-05T01:35:36;99642.75;;;7.81;60.40
38780;BME280;29273;49.962;9.768;2022-12-05T01:38:03;99640.09;;;7.81;60.28
38780;BME280;29273;49.962;9.768;2022-12-05T01:40:29;99645.16;;;7.83;60.42
38780;BME280;29273;49.962;9.768;2022-12-05T01:42:55;99636.25;;;7.84;60.42
38780;BME280;29273;49.962;9.768;2022-12-05T01:45:33;99649.31;;;7.92;59.83
38780;BME280;29273;49.962;9.768;2022-12-05T01:48:02;99646.69;;;7.92;60.03
38780;BME280;29273;49.962;9.768;2022-12-05T01:50:29;99646.88;;;7.90;60.44
38780;BME280;29273;49.962;9.768;2022-12-05T01:52:55;99644.03;;;7.92;60.32
38780;BME280;29273;49.962;9.768;2022-12-05T01:55:20;99643.84;;;7.93;60.38
38780;BME280;29273;49.962;9.768;2022-12-05T01:57:46;99647.13;;;7.95;60.23
38780;BME280;29273;49.962;9.768;2022-12-05T02:00:16;99642.09;;;8.01;59.98
38780;BME280;29273;49.962;9.768;2022-12-05T02:02:50;99642.75;;;8.03;59.87
38780;BME280;29273;49.962;9.768;2022-12-05T02:05:20;99641.09;;;8.02;60.08
38780;BME280;29273;49.962;9.768;2022-12-05T02:07:46;99642.94;;;8.01;60.38
38780;BME280;29273;49.962;9.768;2022-12-05T02:10:12;99638.47;;;8.02;60.27
38780;BME280;29273;49.962;9.768;2022-12-05T02:12:39;99633.81;;;8.04;60.23
38780;BME280;29273;49.962;9.768;2022-12-05T02:20:43;99648.25;;;8.08;59.79
38780;BME280;29273;49.962;9.768;2022-12-05T02:23:38;99650.06;;;8.07;59.88
38780;BME280;29273;49.962;9.768;2022-12-05T02:28:43;99657.53;;;8.04;60.33
38780;BME280;29273;49.962;9.768;2022-12-05T02:31:20;99656.00;;;8.09;59.82
38780;BME280;29273;49.962;9.768;2022-12-05T02:34:26;99654.09;;;8.03;59.47
38780;BME280;29273;49.962;9.768;2022-12-05T02:37:38;99652.44;;;8.02;60.17
38780;BME280;29273;49.962;9.768;2022-12-05T02:40:04;99657.34;;;8.05;59.42
38780;BME280;29273;49.962;9.768;2022-12-05T02:45:27;99649.81;;;8.02;59.84
38780;BME280;29273;49.962;9.768;2022-12-05T02:47:55;99660.56;;;8.01;59.94
38780;BME280;29273;49.962;9.768;2022-12-05T02:50:26;99663.00;;;8.02;59.69
38780;BME280;29273;49.962;9.768;2022-12-05T02:52:55;99665.03;;;8.00;59.85
38780;BME280;29273;49.962;9.768;2022-12-05T02:55:23;99667.84;;;7.99;60.15
38780;BME280;29273;49.962;9.768;2022-12-05T02:57:54;99659.75;;;8.00;60.00
38780;BME280;29273;49.962;9.768;2022-12-05T03:00:21;99666.19;;;7.97;60.39
38780;BME280;29273;49.962;9.768;2022-12-05T03:02:47;99672.13;;;8.00;60.15
38780;BME280;29273;49.962;9.768;2022-12-05T03:05:19;99666.47;;;8.03;59.83
38780;BME280;29273;49.962;9.768;2022-12-05T03:07:48;99664.84;;;8.02;60.17
38780;BME280;29273;49.962;9.768;2022-12-05T03:10:19;99663.00;;;8.02;60.09
38780;BME280;29273;49.962;9.768;2022-12-05T03:12:53;99672.38;;;8.05;59.85
38780;BME280;29273;49.962;9.768;2022-12-05T03:15:23;99676.00;;;8.04;60.09
38780;BME280;29273;49.962;9.768;2022-12-05T03:17:59;99676.00;;;8.04;60.13
38780;BME280;29273;49.962;9.768;2022-12-05T03:20:33;99676.63;;;8.06;60.01
38780;BME280;29273;49.962;9.768;2022-12-05T03:23:06;99675.63;;;8.07;59.90
38780;BME280;29273;49.962;9.768;2022-12-05T03:25:41;99681.72;;;8.07;59.92
38780;BME280;29273;49.962;9.768;2022-12-05T03:28:18;99688.44;;;8.10;60.11
38780;BME280;29273;49.962;9.768;2022-12-05T03:30:46;99690.47;;;8.08;60.21
38780;BME280;29273;49.962;9.768;2022-12-05T03:33:22;99686.63;;;8.10;59.79
38780;BME280;29273;49.962;9.768;2022-12-05T03:35:52;99693.28;;;8.06;60.12
38780;BME280;29273;49.962;9.768;2022-12-05T03:38:24;99690.06;;;8.11;59.88
38780;BME280;29273;49.962;9.768;2022-12-05T03:41:06;99687.63;;;8.09;59.90
38780;BME280;29273;49.962;9.768;2022-12-05T03:46:04;99688.25;;;8.11;60.22
38780;BME280;29273;49.962;9.768;2022-12-05T03:48:36;99689.06;;;8.12;59.98
38780;BME280;29273;49.962;9.768;2022-12-05T03:51:06;99698.81;;;8.11;60.06
38780;BME280;29273;49.962;9.768;2022-12-05T03:53:40;99707.34;;;8.13;59.89
38780;BME280;29273;49.962;9.768;2022-12-05T03:56:14;99712.63;;;8.13;59.89
38780;BME280;29273;49.962;9.768;2022-12-05T03:59:12;99707.72;;;8.10;59.62
38780;BME280;29273;49.962;9.768;2022-12-05T04:01:41;99718.47;;;8.09;60.36
38780;BME280;29273;49.962;9.768;2022-12-05T04:04:16;99714.63;;;8.11;59.93
38780;BME280;29273;49.962;9.768;2022-12-05T04:06:45;99719.06;;;8.11;60.22
38780;BME280;29273;49.962;9.768;2022-12-05T04:09:20;99717.09;;;8.13;59.88
38780;BME280;29273;49.962;9.768;2022-12-05T04:11:54;99714.47;;;8.13;59.88
38780;BME280;29273;49.962;9.768;2022-12-05T04:14:46;99714.47;;;8.13;59.93
38780;BME280;29273;49.962;9.768;2022-12-05T04:19:46;99720.72;;;8.12;60.05
38780;BME280;29273;49.962;9.768;2022-12-05T04:22:33;99721.28;;;8.07;60.42
38780;BME280;29273;49.962;9.768;2022-12-05T04:25:01;99727.81;;;8.11;60.19
38780;BME280;29273;49.962;9.768;2022-12-05T04:35:58;99745.00;;;8.07;59.98
38780;BME280;29273;49.962;9.768;2022-12-05T04:38:38;99746.66;;;8.08;59.68
38780;BME280;29273;49.962;9.768;2022-12-05T04:41:11;99752.75;;;8.09;60.05
38780;BME280;29273;49.962;9.768;2022-12-05T04:43:39;99743.59;;;8.05;60.42
38780;BME280;29273;49.962;9.768;2022-12-05T04:46:08;99749.28;;;8.08;60.36
38780;BME280;29273;49.962;9.768;2022-12-05T04:48:38;99746.66;;;8.08;60.33
38780;BME280;29273;49.962;9.768;2022-12-05T04:51:12;99748.31;;;8.09;59.92
38780;BME280;29273;49.962;9.768;2022-12-05T04:53:40;99750.47;;;8.06;60.44
38780;BME280;29273;49.962;9.768;2022-12-05T04:56:08;99753.09;;;8.06;60.45
38780;BME280;29273;49.962;9.768;2022-12-05T04:58:34;99754.94;;;8.05;60.66
38780;BME280;29273;49.962;9.768;2022-12-05T05:01:20;99754.75;;;8.07;59.74
38780;BME280;29273;49.962;9.768;2022-12-05T05:03:52;99753.59;;;8.09;60.26
38780;BME280;29273;49.962;9.768;2022-12-05T05:06:19;99750.66;;;8.04;60.72
38780;BME280;29273;49.962;9.768;2022-12-05T05:08:53;99745.66;;;8.09;60.25
38780;BME280;29273;49.962;9.768;2022-12-05T05:11:24;99754.38;;;8.10;60.92
38780;BME280;29273;49.962;9.768;2022-12-05T05:13:51;99752.13;;;8.07;60.88
38780;BME280;29273;49.962;9.768;2022-12-05T05:16:19;99753.38;;;8.11;60.65
38780;BME280;29273;49.962;9.768;2022-12-05T05:18:47;99755.00;;;8.12;60.80
38780;BME280;29273;49.962;9.768;2022-12-05T05:21:24;99765.19;;;8.15;60.33
38780;BME280;29273;49.962;9.768;2022-12-05T05:23:51;99762.13;;;8.11;61.04
38780;BME280;29273;49.962;9.768;2022-12-05T05:26:16;99765.56;;;8.12;60.88
38780;BME280;29273;49.962;9.768;2022-12-05T05:28:43;99768.03;;;8.13;60.58
38780;BME280;29273;49.962;9.768;2022-12-05T05:31:09;99770.66;;;8.13;60.70
38780;BME280;29273;49.962;9.768;2022-12-05T05:33:35;99768.03;;;8.13;60.85
38780;BME280;29273;49.962;9.768;2022-12-05T05:36:05;99768.28;;;8.19;60.42
38780;BME280;29273;49.962;9.768;2022-12-05T05:38:36;99768.47;;;8.17;60.55
38780;BME280;29273;49.962;9.768;2022-12-05T05:41:02;99763.53;;;8.14;60.75
38780;BME280;29273;49.962;9.768;2022-12-05T05:43:28;99772.50;;;8.13;60.60
38780;BME280;29273;49.962;9.768;2022-12-05T05:45:53;99776.13;;;8.12;60.60
38780;BME280;29273;49.962;9.768;2022-12-05T05:48:19;99773.47;;;8.12;60.38
38780;BME280;29273;49.962;9.768;2022-12-05T05:50:44;99775.31;;;8.11;60.60
38780;BME280;29273;49.962;9.768;2022-12-05T05:53:10;99771.81;;;8.11;60.38
38780;BME280;29273;49.962;9.768;2022-12-05T05:55:41;99771.47;;;8.14;60.20
38780;BME280;29273;49.962;9.768;2022-12-05T05:58:07;99772.84;;;8.10;60.34
38780;BME280;29273;49.962;9.768;2022-12-05T06:00:33;99773.84;;;8.09;60.47
38780;BME280;29273;49.962;9.768;2022-12-05T06:02:58;99779.97;;;8.09;60.38
38780;BME280;29273;49.962;9.768;2022-12-05T06:05:24;99785.22;;;8.09;60.31
38780;BME280;29273;49.962;9.768;2022-12-05T06:07:51;99783.22;;;8.11;60.11
38780;BME280;29273;49.962;9.768;2022-12-05T06:10:17;99780.16;;;8.08;60.44
38780;BME280;29273;49.962;9.768;2022-12-05T06:12:42;99781.94;;;8.07;60.31
38780;BME280;29273;49.962;9.768;2022-12-05T06:15:08;99783.78;;;8.07;60.22
38780;BME280;29273;49.962;9.768;2022-12-05T06:17:33;99783.78;;;8.07;60.48
38780;BME280;29273;49.962;9.768;2022-12-05T06:19:59;99774.41;;;8.04;60.48
38780;BME280;29273;49.962;9.768;2022-12-05T06:22:24;99781.31;;;8.05;60.69
38780;BME280;29273;49.962;9.768;2022-12-05T06:24:50;99772.59;;;8.05;60.75
38780;BME280;29273;49.962;9.768;2022-12-05T06:27:15;99789.22;;;8.05;60.52
38780;BME280;29273;49.962;9.768;2022-12-05T06:29:41;99791.06;;;8.05;60.42
38780;BME280;29273;49.962;9.768;2022-12-05T06:32:06;99801.78;;;8.03;60.35
38780;BME280;29273;49.962;9.768;2022-12-05T06:34:32;99792.22;;;8.02;60.54
38780;BME280;29273;49.962;9.768;2022-12-05T06:36:58;99800.97;;;8.03;60.30
38780;BME280;29273;49.962;9.768;2022-12-05T06:39:24;99801.16;;;8.01;60.39
38780;BME280;29273;49.962;9.768;2022-12-05T06:41:49;99802.16;;;8.00;60.48
38780;BME280;29273;49.962;9.768;2022-12-05T06:44:15;99800.50;;;7.99;60.33
38780;BME280;29273;49.962;9.768;2022-12-05T06:46:41;99808.41;;;7.99;60.36
38780;BME280;29273;49.962;9.768;2022-12-05T06:49:08;99813.50;;;8.01;60.14
38780;BME280;29273;49.962;9.768;2022-12-05T06:51:34;99820.97;;;7.97;60.31
38780;BME280;29273;49.962;9.768;2022-12-05T06:54:00;99829.06;;;7.95;60.34
38780;BME280;29273;49.962;9.768;2022-12-05T06:56:25;99828.25;;;7.95;60.22
38780;BME280;29273;49.962;9.768;2022-12-05T06:58:52;99834.34;;;7.95;60.26
38780;BME280;29273;49.962;9.768;2022-12-05T07:01:20;99828.25;;;7.95;60.18
38780;BME280;29273;49.962;9.768;2022-12-05T07:04:20;99831.53;;;7.97;60.01
38780;BME280;29273;49.962;9.768;2022-12-05T07:06:48;99841.00;;;7.91;60.90
38780;BME280;29273;49.962;9.768;2022-12-05T07:09:14;99834.72;;;7.92;60.78
38780;BME280;29273;49.962;9.768;2022-12-05T07:11:40;99834.53;;;7.94;60.72
38780;BME280;29273;49.962;9.768;2022-12-05T07:14:06;99835.56;;;7.93;60.82
38780;BME280;29273;49.962;9.768;2022-12-05T07:16:34;99836.19;;;7.95;60.76
38780;BME280;29273;49.962;9.768;2022-12-05T07:18:59;99833.53;;;7.95;60.78
38780;BME280;29273;49.962;9.768;2022-12-05T07:21:25;99835.19;;;7.96;60.83
38780;BME280;29273;49.962;9.768;2022-12-05T07:23:50;99840.06;;;7.99;60.75
38780;BME280;29273;49.962;9.768;2022-12-05T07:26:21;99837.69;;;8.04;60.45
38780;BME280;29273;49.962;9.768;2022-12-05T07:28:48;99843.19;;;8.03;60.75
38780;BME280;29273;49.962;9.768;2022-12-05T07:31:17;99844.81;;;8.04;60.48
38780;BME280;29273;49.962;9.768;2022-12-05T07:33:43;99844.00;;;8.03;60.77
38780;BME280;29273;49.962;9.768;2022-12-05T07:36:14;99849.53;;;8.08;60.33
38780;BME280;29273;49.962;9.768;2022-12-05T07:38:40;99845.81;;;8.03;60.69
38780;BME280;29273;49.962;9.768;2022-12-05T07:41:08;99848.06;;;8.06;60.46
38780;BME280;29273;49.962;9.768;2022-12-05T07:43:34;99842.97;;;8.04;60.53
38780;BME280;29273;49.962;9.768;2022-12-05T07:46:04;99861.72;;;8.09;60.24
38780;BME280;29273;49.962;9.768;2022-12-05T07:48:30;99863.88;;;8.06;60.44
38780;BME280;29273;49.962;9.768;2022-12-05T07:51:01;99860.72;;;8.10;60.10
38780;BME280;29273;49.962;9.768;2022-12-05T07:53:27;99866.53;;;8.06;60.39
38780;BME280;29273;49.962;9.768;2022-12-05T07:55:52;99863.88;;;8.06;60.59
38780;BME280;29273;49.962;9.768;2022-12-05T07:58:18;99870.00;;;8.06;60.53
38780;BME280;29273;49.962;9.768;2022-12-05T08:00:43;99877.06;;;8.06;60.60
38780;BME280;29273;49.962;9.768;2022-12-05T08:03:09;99876.09;;;8.07;60.52
38780;BME280;29273;49.962;9.768;2022-12-05T08:05:34;99878.72;;;8.07;60.67
38780;BME280;29273;49.962;9.768;2022-12-05T08:08:00;99880.38;;;8.08;60.57
38780;BME280;29273;49.962;9.768;2022-12-05T08:10:25;99886.47;;;8.08;60.70
38780;BME280;29273;49.962;9.768;2022-12-05T08:12:51;99885.47;;;8.09;60.63
38780;BME280;29273;49.962;9.768;2022-12-05T08:15:16;99891.56;;;8.10;60.66
38780;BME280;29273;49.962;9.768;2022-12-05T08:17:42;99895.81;;;8.11;60.74
38780;BME280;29273;49.962;9.768;2022-12-05T08:20:08;99889.53;;;8.12;60.55
38780;BME280;29273;49.962;9.768;2022-12-05T08:22:33;99897.28;;;8.13;60.37
38780;BME280;29273;49.962;9.768;2022-12-05T08:24:59;99899.91;;;8.13;60.46
38780;BME280;29273;49.962;9.768;2022-12-05T08:27:24;99899.91;;;8.13;60.50
38780;BME280;29273;49.962;9.768;2022-12-05T08:29:50;99908.63;;;8.14;60.48
38780;BME280;29273;49.962;9.768;2022-12-05T08:32:15;99916.38;;;8.15;60.48
38780;BME280;29273;49.962;9.768;2022-12-05T08:34:41;99916.38;;;8.15;60.34
38780;BME280;29273;49.962;9.768;2022-12-05T08:37:06;99919.00;;;8.15;60.29
38780;BME280;29273;49.962;9.768;2022-12-05T08:39:32;99926.75;;;8.17;60.35
38780;BME280;29273;49.962;9.768;2022-12-05T08:41:58;99928.56;;;8.17;60.16
38780;BME280;29273;49.962;9.768;2022-12-05T08:44:23;99938.09;;;8.18;60.24
38780;BME280;29273;49.962;9.768;2022-12-05T08:46:49;99940.09;;;8.15;60.06
38780;BME280;29273;49.962;9.768;2022-12-05T08:49:15;99939.94;;;8.17;59.69
38780;BME280;29273;49.962;9.768;2022-12-05T08:51:42;99938.94;;;8.18;59.81
38780;BME280;29273;49.962;9.768;2022-12-05T08:54:08;99948.88;;;8.16;59.83
38780;BME280;29273;49.962;9.768;2022-12-05T08:56:33;99950.84;;;8.14;59.86
38780;BME280;29273;49.962;9.768;2022-12-05T08:58:59;99955.13;;;8.15;60.13
38780;BME280;29273;49.962;9.768;2022-12-05T09:01:27;99949.03;;;8.14;59.74
38780;BME280;29273;49.962;9.768;2022-12-05T09:03:56;99946.59;;;8.13;59.63
38780;BME280;29273;49.962;9.768;2022-12-05T09:06:24;99949.22;;;8.13;59.57
38780;BME280;29273;49.962;9.768;2022-12-05T09:09:00;99944.75;;;8.13;59.37
38780;BME280;29273;49.962;9.768;2022-12-05T09:11:30;99947.41;;;8.13;59.75
38780;BME280;29273;49.962;9.768;2022-12-05T09:13:57;99946.94;;;8.10;59.77
38780;BME280;29273;49.962;9.768;2022-12-05T09:16:28;99948.56;;;8.11;59.68
38780;BME280;29273;49.962;9.768;2022-12-05T09:18:54;99949.59;;;8.10;59.79
38780;BME280;29273;49.962;9.768;2022-12-05T09:21:23;99953.66;;;8.12;59.74
38780;BME280;29273;49.962;9.768;2022-12-05T09:23:49;99960.75;;;8.12;59.86
38780;BME280;29273;49.962;9.768;2022-12-05T09:26:18;99962.06;;;8.16;59.88
38780;BME280;29273;49.962;9.768;2022-12-05T09:28:44;99972.97;;;8.13;59.86
38780;BME280;29273;49.962;9.768;2022-12-05T09:31:16;99969.97;;;8.16;59.79
38780;BME280;29273;49.962;9.768;2022-12-05T09:33:43;99970.97;;;8.15;59.79
38780;BME280;29273;49.962;9.768;2022-12-05T09:36:16;99975.69;;;8.20;59.67
38780;BME280;29273;49.962;9.768;2022-12-05T09:38:42;99980.53;;;8.16;59.64
38780;BME280;29273;49.962;9.768;2022-12-05T09:43:46;99983.44;;;8.21;59.70
38780;BME280;29273;49.962;9.768;2022-12-05T09:46:20;99984.06;;;8.23;59.91
38780;BME280;29273;49.962;9.768;2022-12-05T09:48:51;99983.69;;;8.26;59.64
38780;BME280;29273;49.962;9.768;2022-12-05T09:51:16;99979.22;;;8.27;59.52
38780;BME280;29273;49.962;9.768;2022-12-05T09:53:43;99976.22;;;8.30;59.44
38780;BME280;29273;49.962;9.768;2022-12-05T09:58:49;99973.69;;;8.37;59.42
38780;BME280;29273;49.962;9.768;2022-12-05T10:01:38;99967.88;;;8.41;59.48
38780;BME280;29273;49.962;9.768;2022-12-05T10:07:27;99964.56;;;8.39;59.43
38780;BME280;29273;49.962;9.768;2022-12-05T10:15:41;99961.84;;;8.47;59.50
38780;BME280;29273;49.962;9.768;2022-12-05T10:23:56;99963.50;;;8.48;59.27
38780;BME280;29273;49.962;9.768;2022-12-05T10:26:25;99952.13;;;8.48;59.60
38780;BME280;29273;49.962;9.768;2022-12-05T10:29:32;99951.31;;;8.47;59.27
38780;BME280;29273;49.962;9.768;2022-12-05T10:32:35;99947.84;;;8.47;59.38
38780;BME280;29273;49.962;9.768;2022-12-05T10:35:16;99952.41;;;8.53;59.36
38780;BME280;29273;49.962;9.768;2022-12-05T10:37:55;99947.75;;;8.55;59.45
38780;BME280;29273;49.962;9.768;2022-12-05T10:40:21;99942.03;;;8.51;59.56
38780;BME280;29273;49.962;9.768;2022-12-05T10:42:48;99940.03;;;8.54;59.07
38780;BME280;29273;49.962;9.768;2022-12-05T10:45:21;99943.53;;;8.61;59.00
38780;BME280;29273;49.962;9.768;2022-12-05T10:47:52;99942.91;;;8.59;59.27
38780;BME280;29273;49.962;9.768;2022-12-05T10:50:22;99942.56;;;8.62;59.25
38780;BME280;29273;49.962;9.768;2022-12-05T10:52:49;99940.91;;;8.61;59.30
38780;BME280;29273;49.962;9.768;2022-12-05T10:55:16;99946.66;;;8.64;59.37
38780;BME280;29273;49.962;9.768;2022-12-05T10:57:49;99944.09;;;8.71;59.53
38780;BME280;29273;49.962;9.768;2022-12-05T11:00:19;99937.78;;;8.72;59.66
38780;BME280;29273;49.962;9.768;2022-12-05T11:02:46;99942.88;;;8.74;59.69
38780;BME280;29273;49.962;9.768;2022-12-05T11:05:12;99947.00;;;8.76;59.63
38780;BME280;29273;49.962;9.768;2022-12-05T11:07:46;99955.44;;;8.86;59.50
38780;BME280;29273;49.962;9.768;2022-12-05T11:10:40;99956.41;;;8.85;59.53
38780;BME280;29273;49.962;9.768;2022-12-05T11:13:24;99958.13;;;8.93;59.55
38780;BME280;29273;49.962;9.768;2022-12-05T11:15:49;99959.31;;;8.91;59.02
38780;BME280;29273;49.962;9.768;2022-12-05T11:18:29;99960.03;;;8.99;59.06
38780;BME280;29273;49.962;9.768;2022-12-05T11:21:07;99971.59;;;8.98;59.02
38780;BME280;29273;49.962;9.768;2022-12-05T11:23:33;99966.31;;;8.98;58.91
38780;BME280;29273;49.962;9.768;2022-12-05T11:25:58;99968.78;;;9.00;58.79
38780;BME280;29273;49.962;9.768;2022-12-05T11:28:30;99974.31;;;9.05;58.68
38780;BME280;29273;49.962;9.768;2022-12-05T11:30:57;99967.31;;;8.97;58.62
38780;BME280;29273;49.962;9.768;2022-12-05T11:33:28;99967.13;;;8.99;58.29
38780;BME280;29273;49.962;9.768;2022-12-05T11:35:56;99962.88;;;8.98;58.48
38780;BME280;29273;49.962;9.768;2022-12-05T11:38:26;99966.50;;;8.97;58.51
38780;BME280;29273;49.962;9.768;2022-12-05T11:46:54;99959.50;;;8.89;58.62
38780;BME280;29273;49.962;9.768;2022-12-05T11:55:32;99956.59;;;8.84;59.16
38780;BME280;29273;49.962;9.768;2022-12-05T12:03:51;99947.81;;;8.77;59.33
38780;BME280;29273;49.962;9.768;2022-12-05T12:06:25;99947.63;;;8.78;58.92
38780;BME280;29273;49.962;9.768;2022-12-05T12:14:43;99948.41;;;8.79;59.61
38780;BME280;29273;49.962;9.768;2022-12-05T12:17:33;99952.47;;;8.75;59.56
38780;BME280;29273;49.962;9.768;2022-12-05T12:25:38;99944.16;;;8.78;59.88
38780;BME280;29273;49.962;9.768;2022-12-05T12:30:41;99944.72;;;8.73;60.36
38780;BME280;29273;49.962;9.768;2022-12-05T12:36:07;99941.53;;;8.78;59.86
38780;BME280;29273;49.962;9.768;2022-12-05T12:44:59;99942.69;;;8.75;60.02
38780;BME280;29273;49.962;9.768;2022-12-05T12:47:01;99940.50;;;8.79;59.94
38780;BME280;29273;49.962;9.768;2022-12-05T12:52:19;99941.72;;;8.76;60.33
38780;BME280;29273;49.962;9.768;2022-12-05T12:55:02;99936.78;;;8.73;60.57
38780;BME280;29273;49.962;9.768;2022-12-05T13:03:23;99944.41;;;8.83;60.04
38780;BME280;29273;49.962;9.768;2022-12-05T13:05:58;99938.13;;;8.84;60.36
38780;BME280;29273;49.962;9.768;2022-12-05T13:08:39;99937.94;;;8.85;60.21
38780;BME280;29273;49.962;9.768;2022-12-05T13:11:09;99940.56;;;8.85;60.47
38780;BME280;29273;49.962;9.768;2022-12-05T13:13:46;99941.84;;;8.89;60.00
38780;BME280;29273;49.962;9.768;2022-12-05T13:16:44;99951.31;;;8.84;60.02
38780;BME280;29273;49.962;9.768;2022-12-05T13:19:27;99949.78;;;8.89;60.18
38780;BME280;29273;49.962;9.768;2022-12-05T13:21:54;99949.97;;;8.88;60.36
38780;BME280;29273;49.962;9.768;2022-12-05T13:24:24;99952.03;;;8.93;60.33
38780;BME280;29273;49.962;9.768;2022-12-05T13:26:50;99951.56;;;8.89;60.54
38780;BME280;29273;49.962;9.768;2022-12-05T13:29:27;99950.22;;;8.93;60.23
38780;BME280;29273;49.962;9.768;2022-12-05T13:31:54;99951.38;;;8.91;60.34
38780;BME280;29273;49.962;9.768;2022-12-05T13:36:52;99954.69;;;8.93;60.72
38780;BME280;29273;49.962;9.768;2022-12-05T13:39:37;99948.38;;;8.94;60.53
38780;BME280;29273;49.962;9.768;2022-12-05T13:42:24;99959.56;;;8.96;60.42
38780;BME280;29273;49.962;9.768;2022-12-05T13:50:07;99959.00;;;9.00;60.00
38780;BME280;29273;49.962;9.768;2022-12-05T13:52:45;99953.72;;;9.00;60.00
38780;BME280;29273;49.962;9.768;2022-12-05T13:55:24;99956.19;;;9.02;60.08
38780;BME280;29273;49.962;9.768;2022-12-05T13:57:53;99959.81;;;9.01;60.57
38780;BME280;29273;49.962;9.768;2022-12-05T14:00:23;99957.84;;;9.03;60.29
38780;BME280;29273;49.962;9.768;2022-12-05T14:02:55;99957.00;;;9.02;60.48
38780;BME280;29273;49.962;9.768;2022-12-05T14:07:46;99951.09;;;9.00;60.56
38780;BME280;29273;49.962;9.768;2022-12-05T14:15:42;99962.09;;;9.04;60.21
38780;BME280;29273;49.962;9.768;2022-12-05T14:21:44;99967.63;;;9.09;60.03
38780;BME280;29273;49.962;9.768;2022-12-05T14:24:26;99964.19;;;9.08;59.81
38780;BME280;29273;49.962;9.768;2022-12-05T14:27:11;99965.19;;;9.07;59.76
38780;BME280;29273;49.962;9.768;2022-12-05T14:30:03;99961.53;;;9.08;59.72
38780;BME280;29273;49.962;9.768;2022-12-05T14:32:39;99972.91;;;9.09;59.69
38780;BME280;29273;49.962;9.768;2022-12-05T14:35:21;99966.81;;;9.08;59.72
38780;BME280;29273;49.962;9.768;2022-12-05T14:38:03;99970.47;;;9.07;59.90
38780;BME280;29273;49.962;9.768;2022-12-05T14:40:33;99968.84;;;9.06;60.07
38780;BME280;29273;49.962;9.768;2022-12-05T14:45:36;99965.81;;;9.10;59.78
38780;BME280;29273;49.962;9.768;2022-12-05T14:48:21;99959.69;;;9.09;59.86
38780;BME280;29273;49.962;9.768;2022-12-05T14:50:55;99962.34;;;9.09;59.83
38780;BME280;29273;49.962;9.768;2022-12-05T14:53:40;99966.19;;;9.06;59.45
38780;BME280;29273;49.962;9.768;2022-12-05T14:56:22;99965.19;;;9.07;59.52
38780;BME280;29273;49.962;9.768;2022-12-05T14:58:55;99961.09;;;9.05;59.78
38780;BME280;29273;49.962;9.768;2022-12-05T15:01:31;99964.38;;;9.07;59.60
38780;BME280;29273;49.962;9.768;2022-12-05T15:04:16;99959.28;;;9.05;59.39
38780;BME280;29273;49.962;9.768;2022-12-05T15:06:47;99966.75;;;9.02;59.61
38780;BME280;29273;49.962;9.768;2022-12-05T15:12:19;99970.69;;;9.06;59.46
38780;BME280;29273;49.962;9.768;2022-12-05T15:14:57;99972.28;;;9.07;59.40
38780;BME280;29273;49.962;9.768;2022-12-05T15:17:39;99975.97;;;9.06;59.54
38780;BME280;29273;49.962;9.768;2022-12-05T15:20:15;99983.66;;;9.07;59.37
38780;BME280;29273;49.962;9.768;2022-12-05T15:22:41;99978.78;;;9.04;59.79
38780;BME280;29273;49.962;9.768;2022-12-05T15:25:34;99986.72;;;9.04;59.35